Terminal Aerodrome Forecast
Issued by NWS

Home | Current Version | Previous Version | Text Only | Print | Product List | Glossary On
Versions: 1 2 3 4 5 6 7 8 9 10 11 12 13 14 15 16 17 18
000
FTUS43 KIND 271720
TAFBMG
TAF
KBMG 271720Z 2718/2818 VRB05KT P6SM FEW010 BKN100
     FM280100 00000KT P6SM SCT100
     FM280300 00000KT 4SM BR SCT100
     FM280600 00000KT 1SM BR BCFG SCT025
     FM281500 VRB03KT P6SM SCT035=

USA.gov is the U.S. government's official web portal to all federal, state and local government web resources and services.